ETOU

Wiesbaden Army Airfield Airport

Wiesbaden, Germany
METAR ETOU 152156Z AUTO 00000KT 9999 CLR 19/13 A3011 RMK AO2 SLP194 T01850125 $
Observed Flight Rules
Aug-15 @ 21:56 UTC (31 minutes ago) Visual Flight Rules
Visibility Clouds
10,000+ meters
  • Clear skies
Temperatures Readings
Current 19°C / 66°F
Dewpoint 13°C / 55°F
Humidity 68%
Altimeter 30.11" Hg
Pressure 1019.4 hPa
Elevation 141
METAR ETOU 152156Z AUTO 00000KT 9999 CLR 19/13 A3011 RMK AO2 SLP194 T01850125 $
Observed Flight Rules
Aug-15 @ 21:56 UTC
(31 minutes ago)
VFR
Clouds
  • Clear skies
Temperature Dewpoint
19°C / 66°F 13°C / 55°F
Humidity Altimeter Pressure
68% 30.11" Hg 1019.4 hPa